Time;durP1;ratioP1;P1;durP2;ratioP2;P2;SDS_P1;SDS_P2;PMS_P1;PMS_P2;Temp;Humidity;BMP_temperature;BMP_pressure;BME280_temperature;BME280_humidity;BME280_pressure;Samples;Min_cycle;Max_cycle;Signal;HPM_P1;HPM_P2
2024/03/30 00:01:50;;;;;;;6.38;2.55;;;;;;;7.91;100.00;95484.75;5036547;28;20067;-63
2024/03/30 00:04:16;;;;;;;7.57;2.72;;;;;;;7.92;100.00;95489.06;5058230;28;20115;-63
2024/03/30 00:06:42;;;;;;;8.25;3.38;;;;;;;7.94;100.00;95484.22;5040471;28;20053;-64
2024/03/30 00:09:07;;;;;;;10.00;3.63;;;;;;;7.88;100.00;95477.25;5049601;28;20087;-63
2024/03/30 00:11:33;;;;;;;8.20;3.65;;;;;;;7.89;100.00;95475.34;5056268;28;20496;-61
2024/03/30 00:13:59;;;;;;;11.70;3.65;;;;;;;7.90;100.00;95477.78;5054430;28;20811;-63
2024/03/30 00:16:25;;;;;;;13.07;4.10;;;;;;;7.54;100.00;95478.81;5048464;28;20047;-61
2024/03/30 00:18:53;;;;;;;9.05;3.55;;;;;;;7.44;100.00;95476.19;5058568;28;20055;-61
2024/03/30 00:21:19;;;;;;;8.80;3.85;;;;;;;7.34;100.00;95473.56;5058101;28;20044;-63
2024/03/30 00:23:45;;;;;;;7.88;3.55;;;;;;;7.36;100.00;95474.88;5044672;28;20056;-61
2024/03/30 00:26:10;;;;;;;8.13;3.40;;;;;;;7.36;100.00;95476.75;5049508;28;20073;-61
2024/03/30 00:28:36;;;;;;;9.27;3.40;;;;;;;7.44;100.00;95473.50;5053932;28;20039;-63
2024/03/30 00:31:02;;;;;;;8.93;3.03;;;;;;;7.53;100.00;95473.72;5043803;28;20110;-63
2024/03/30 00:33:28;;;;;;;10.75;2.92;;;;;;;7.49;100.00;95478.84;5055258;28;20036;-64
2024/03/30 00:35:55;;;;;;;9.60;3.13;;;;;;;7.32;100.00;95473.84;5062635;28;20730;-63
2024/03/30 00:38:20;;;;;;;11.50;2.80;;;;;;;7.21;100.00;95478.47;5046524;28;20044;-63
2024/03/30 00:40:46;;;;;;;10.40;2.88;;;;;;;7.15;100.00;95477.69;5057162;28;20037;-62
2024/03/30 00:43:12;;;;;;;9.77;3.28;;;;;;;7.11;100.00;95479.31;5053918;28;20127;-62
2024/03/30 00:45:39;;;;;;;9.90;2.92;;;;;;;7.11;100.00;95476.63;5055950;28;20045;-63
2024/03/30 00:48:05;;;;;;;14.60;3.40;;;;;;;6.97;100.00;95472.94;5052855;28;20043;-63
2024/03/30 00:50:30;;;;;;;8.18;2.95;;;;;;;6.87;100.00;95479.97;5045937;28;20037;-63
2024/03/30 00:52:56;;;;;;;10.57;2.95;;;;;;;6.87;100.00;95473.78;5049959;28;20099;-63
2024/03/30 00:55:22;;;;;;;15.20;3.30;;;;;;;6.84;100.00;95469.75;5053535;28;20048;-64
2024/03/30 00:57:48;;;;;;;9.27;2.88;;;;;;;6.93;100.00;95461.09;5054820;28;20527;-62
2024/03/30 01:00:14;;;;;;;13.93;2.80;;;;;;;6.99;100.00;95466.19;5060211;28;20047;-62
2024/03/30 01:02:43;;;;;;;11.70;2.67;;;;;;;7.12;100.00;95454.00;5054662;28;20045;-62
2024/03/30 01:05:09;;;;;;;11.95;2.28;;;;;;;7.29;100.00;95456.34;5053952;28;20044;-64
2024/03/30 01:07:35;;;;;;;15.27;3.70;;;;;;;7.47;100.00;95459.47;5055416;28;20037;-63
2024/03/30 01:10:06;;;;;;;8.85;2.53;;;;;;;7.49;100.00;95456.50;5058687;28;20115;-63
2024/03/30 01:12:32;;;;;;;9.23;2.45;;;;;;;7.56;100.00;95454.31;5057805;28;20119;-62
2024/03/30 01:14:58;;;;;;;14.52;2.65;;;;;;;7.73;100.00;95453.09;5051833;28;20036;-63
2024/03/30 01:17:24;;;;;;;16.17;2.47;;;;;;;7.79;100.00;95455.50;5050961;28;20043;-62
2024/03/30 01:19:51;;;;;;;11.55;2.42;;;;;;;7.72;100.00;95456.88;5062065;28;20045;-63
2024/03/30 01:22:17;;;;;;;13.43;2.67;;;;;;;7.69;100.00;95452.88;5065544;28;20059;-62
2024/03/30 01:24:44;;;;;;;9.15;2.67;;;;;;;7.77;100.00;95456.84;5057520;28;20044;-62
2024/03/30 01:27:14;;;;;;;11.98;2.30;;;;;;;7.80;100.00;95456.28;5063410;28;20037;-63
2024/03/30 01:29:42;;;;;;;12.75;2.50;;;;;;;7.82;100.00;95456.81;5057716;28;20044;-61
2024/03/30 01:32:09;;;;;;;14.80;3.17;;;;;;;7.87;100.00;95445.19;5065234;28;20085;-61
2024/03/30 01:34:35;;;;;;;19.02;3.38;;;;;;;7.82;100.00;95451.44;5063041;28;20044;-63
2024/03/30 01:37:01;;;;;;;12.85;3.00;;;;;;;7.71;100.00;95455.28;5063373;28;20037;-63
2024/03/30 01:39:26;;;;;;;11.88;2.50;;;;;;;7.64;100.00;95453.72;5058917;28;20064;-63
2024/03/30 01:41:52;;;;;;;11.15;3.80;;;;;;;7.46;100.00;95449.78;5053414;28;20051;-60
2024/03/30 01:44:18;;;;;;;9.70;3.03;;;;;;;7.54;100.00;95443.00;5052870;28;20037;-64
2024/03/30 01:46:44;;;;;;;13.48;2.67;;;;;;;7.67;100.00;95450.44;5050078;28;20478;-63
2024/03/30 01:49:10;;;;;;;14.55;2.63;;;;;;;7.55;100.00;95450.81;5062019;28;20047;-63
2024/03/30 01:51:37;;;;;;;14.07;3.20;;;;;;;7.64;100.00;95442.13;5053996;28;20087;-62
2024/03/30 01:54:05;;;;;;;14.30;3.08;;;;;;;7.61;100.00;95440.81;5050334;28;20179;-63
2024/03/30 01:56:31;;;;;;;14.45;2.72;;;;;;;7.66;100.00;95440.75;5058559;28;20052;-62
2024/03/30 01:59:01;;;;;;;11.23;2.38;;;;;;;7.76;100.00;95439.88;5061005;28;20041;-63
2024/03/30 02:01:27;;;;;;;14.18;2.17;;;;;;;7.87;100.00;95446.00;5064715;28;20028;-64
2024/03/30 02:03:54;;;;;;;15.48;3.10;;;;;;;7.85;100.00;95440.06;5066489;28;20043;-64
2024/03/30 02:06:21;;;;;;;13.43;2.60;;;;;;;7.92;100.00;95447.81;5051446;28;20040;-63
2024/03/30 02:08:48;;;;;;;11.48;2.50;;;;;;;7.95;100.00;95444.56;5045604;28;20052;-63
2024/03/30 02:11:15;;;;;;;14.23;2.97;;;;;;;7.93;100.00;95449.47;5053315;28;20086;-64
2024/03/30 02:13:41;;;;;;;19.40;3.67;;;;;;;7.91;100.00;95438.13;5057566;28;20040;-62
2024/03/30 02:16:07;;;;;;;12.25;2.63;;;;;;;7.94;100.00;95434.88;5061826;28;20339;-62
2024/03/30 02:18:32;;;;;;;11.43;2.47;;;;;;;7.93;100.00;95433.28;5051765;28;20051;-64
2024/03/30 02:20:58;;;;;;;17.90;2.80;;;;;;;7.98;100.00;95438.63;5051674;28;20040;-63
2024/03/30 02:23:24;;;;;;;15.20;2.33;;;;;;;7.92;100.00;95437.03;5068510;28;20515;-63
2024/03/30 02:25:49;;;;;;;9.30;2.17;;;;;;;7.89;100.00;95429.56;5044409;28;20052;-63
2024/03/30 02:28:15;;;;;;;9.15;2.22;;;;;;;7.86;100.00;95436.31;5053613;28;20028;-61
2024/03/30 02:30:43;;;;;;;15.07;2.80;;;;;;;7.88;100.00;95442.22;5061074;28;20029;-61
2024/03/30 02:33:10;;;;;;;13.13;2.50;;;;;;;7.87;100.00;95437.91;5047521;28;20056;-62
2024/03/30 02:35:36;;;;;;;13.45;2.38;;;;;;;7.87;100.00;95437.91;5055467;28;20090;-64
2024/03/30 02:38:02;;;;;;;16.27;2.65;;;;;;;7.96;100.00;95437.31;5046625;28;20040;-64
2024/03/30 02:40:28;;;;;;;13.52;2.83;;;;;;;7.84;100.00;95438.47;5049067;28;20075;-62
2024/03/30 02:42:53;;;;;;;13.27;2.28;;;;;;;7.84;100.00;95435.78;5061468;28;20059;-61
2024/03/30 02:45:19;;;;;;;22.08;3.00;;;;;;;7.86;100.00;95433.63;5066838;28;20036;-64
2024/03/30 02:47:45;;;;;;;21.10;2.92;;;;;;;7.93;100.00;95436.75;5056363;28;20634;-63
2024/03/30 02:50:10;;;;;;;13.60;2.50;;;;;;;7.82;100.00;95440.66;5058628;28;21536;-62
2024/03/30 02:52:36;;;;;;;17.90;3.90;;;;;;;7.72;100.00;95441.53;5053309;28;20039;-62
2024/03/30 02:55:02;;;;;;;15.18;2.78;;;;;;;7.67;100.00;95438.88;5056631;28;20114;-63
2024/03/30 02:57:28;;;;;;;9.02;2.10;;;;;;;7.65;100.00;95427.56;5059040;28;20044;-63
2024/03/30 02:59:54;;;;;;;19.95;3.28;;;;;;;7.76;100.00;95421.03;5056825;28;20132;-63
2024/03/30 03:02:19;;;;;;;12.30;2.50;;;;;;;7.81;100.00;95429.06;5054332;28;20045;-63
2024/03/30 03:04:45;;;;;;;25.05;3.78;;;;;;;7.88;100.00;95427.91;5055036;28;20102;-63
2024/03/30 03:07:11;;;;;;;27.98;3.92;;;;;;;7.93;100.00;95431.38;5056440;28;20166;-63
2024/03/30 03:09:37;;;;;;;19.27;2.97;;;;;;;8.01;100.00;95426.47;5062861;28;20044;-62
2024/03/30 03:12:03;;;;;;;17.85;3.53;;;;;;;8.02;100.00;95428.06;5055687;28;20072;-62
2024/03/30 03:14:29;;;;;;;22.55;3.63;;;;;;;7.97;100.00;95426.25;5065129;28;20044;-62
2024/03/30 03:16:54;;;;;;;22.40;3.15;;;;;;;8.01;100.00;95421.09;5057598;28;20094;-62
2024/03/30 03:19:20;;;;;;;17.50;3.63;;;;;;;7.96;100.00;95423.81;5056414;28;20049;-62
2024/03/30 03:21:46;;;;;;;20.88;3.92;;;;;;;7.91;100.00;95414.69;5053557;28;20040;-61
2024/03/30 03:24:11;;;;;;;20.08;4.03;;;;;;;7.88;100.00;95414.44;5059380;28;20044;-64
2024/03/30 03:26:37;;;;;;;19.23;4.05;;;;;;;7.80;100.00;95405.09;5061674;28;20040;-63
2024/03/30 03:29:03;;;;;;;12.27;2.65;;;;;;;7.81;100.00;95398.59;5048519;28;20478;-63
2024/03/30 03:31:29;;;;;;;19.73;3.30;;;;;;;7.85;100.00;95396.97;5057151;28;20033;-61
2024/03/30 03:33:54;;;;;;;21.55;3.05;;;;;;;7.90;100.00;95394.25;5046845;28;20044;-62
2024/03/30 03:36:20;;;;;;;24.38;3.17;;;;;;;7.78;100.00;95389.19;5053898;28;20039;-64
2024/03/30 03:38:45;;;;;;;25.13;3.65;;;;;;;7.87;100.00;95391.28;5053391;28;20665;-63
2024/03/30 03:41:11;;;;;;;20.67;3.63;;;;;;;7.98;100.00;95398.19;5050978;28;20077;-63
2024/03/30 03:43:39;;;;;;;17.30;3.65;;;;;;;8.02;100.00;95398.44;5063601;28;20043;-63
2024/03/30 03:46:06;;;;;;;32.30;4.60;;;;;;;8.02;100.00;95407.31;5059962;28;20053;-63
2024/03/30 03:48:31;;;;;;;23.45;4.10;;;;;;;7.97;100.00;95406.56;5055625;28;20041;-63
2024/03/30 03:50:57;;;;;;;17.88;3.80;;;;;;;8.02;100.00;95412.72;5048210;28;20033;-62
2024/03/30 03:53:23;;;;;;;26.10;5.05;;;;;;;8.15;100.00;95416.63;5065242;28;20063;-60
2024/03/30 03:55:48;;;;;;;21.95;4.70;;;;;;;8.14;100.00;95428.50;5063637;28;20133;-63
2024/03/30 03:58:14;;;;;;;18.85;4.18;;;;;;;8.19;100.00;95416.88;5052718;28;20068;-64
2024/03/30 04:00:40;;;;;;;20.75;4.55;;;;;;;8.25;100.00;95431.91;5052589;28;20166;-63
2024/03/30 04:03:06;;;;;;;24.55;4.20;;;;;;;8.44;100.00;95425.81;5062655;28;20053;-63
2024/03/30 04:05:32;;;;;;;22.10;4.40;;;;;;;8.30;100.00;95418.38;5050590;28;20396;-62
2024/03/30 04:07:58;;;;;;;23.83;5.00;;;;;;;8.30;100.00;95425.66;5043560;28;20041;-62
2024/03/30 04:10:24;;;;;;;19.45;4.78;;;;;;;8.31;100.00;95420.00;5050480;28;20056;-61
2024/03/30 04:12:50;;;;;;;26.10;4.95;;;;;;;8.26;100.00;95411.94;5048010;28;20075;-61
2024/03/30 04:15:16;;;;;;;32.28;5.32;;;;;;;8.16;100.00;95414.75;5056038;28;20036;-63
2024/03/30 04:17:43;;;;;;;26.83;4.72;;;;;;;8.13;100.00;95413.44;5062253;28;20044;-64
2024/03/30 04:20:09;;;;;;;29.25;5.25;;;;;;;8.05;100.00;95417.53;5055269;28;20055;-63
2024/03/30 04:22:35;;;;;;;19.65;5.57;;;;;;;8.00;100.00;95417.56;5063094;28;20039;-63
2024/03/30 04:25:00;;;;;;;22.85;3.88;;;;;;;8.04;100.00;95431.31;5071904;28;20037;-64
2024/03/30 04:27:26;;;;;;;20.30;3.75;;;;;;;7.95;100.00;95431.09;5068374;28;20550;-62
2024/03/30 04:29:52;;;;;;;13.68;2.50;;;;;;;7.80;100.00;95437.41;5044252;28;20032;-62
2024/03/30 04:32:17;;;;;;;25.60;3.80;;;;;;;7.72;100.00;95441.53;5060614;28;20463;-61
2024/03/30 04:34:44;;;;;;;21.73;4.15;;;;;;;7.55;100.00;95439.22;5056079;28;20029;-62
2024/03/30 04:37:10;;;;;;;28.35;4.40;;;;;;;7.47;100.00;95440.63;5047571;28;20534;-63
2024/03/30 04:39:36;;;;;;;22.95;3.40;;;;;;;7.38;100.00;95443.09;5059915;28;20040;-63
2024/03/30 04:42:02;;;;;;;18.63;2.75;;;;;;;7.31;100.00;95447.19;5060788;28;20175;-62
2024/03/30 04:44:28;;;;;;;20.67;2.88;;;;;;;7.30;100.00;95443.72;5058008;28;20028;-63
2024/03/30 04:46:53;;;;;;;24.17;4.50;;;;;;;7.19;100.00;95442.94;5054941;28;20542;-61
2024/03/30 04:49:19;;;;;;;18.13;4.88;;;;;;;7.00;100.00;95442.75;5069137;28;20035;-64
2024/03/30 04:51:44;;;;;;;22.30;3.67;;;;;;;6.89;100.00;95444.69;5050597;28;20029;-64
2024/03/30 04:54:10;;;;;;;25.48;4.60;;;;;;;6.80;100.00;95449.84;5055272;28;20112;-62
2024/03/30 04:56:36;;;;;;;20.17;3.80;;;;;;;6.79;100.00;95447.44;5059621;28;20128;-62
2024/03/30 04:59:01;;;;;;;31.58;4.88;;;;;;;6.82;100.00;95450.38;5048275;28;20041;-62
2024/03/30 05:01:27;;;;;;;20.75;3.88;;;;;;;6.89;100.00;95445.50;5056103;28;20045;-63
2024/03/30 05:03:52;;;;;;;16.52;3.00;;;;;;;6.95;100.00;95432.03;5061383;28;20036;-63
2024/03/30 05:06:18;;;;;;;25.42;3.65;;;;;;;6.96;100.00;95430.97;5052755;28;20543;-63
2024/03/30 05:08:44;;;;;;;25.83;4.72;;;;;;;6.90;100.00;95441.72;5059848;28;20045;-64
2024/03/30 05:11:10;;;;;;;17.00;3.13;;;;;;;6.91;100.00;95429.09;5038257;28;20621;-64
2024/03/30 05:13:36;;;;;;;20.35;3.55;;;;;;;6.83;100.00;95437.75;5060782;28;20044;-63
2024/03/30 05:16:02;;;;;;;17.95;4.85;;;;;;;6.68;100.00;95443.97;5052229;28;20037;-63
2024/03/30 05:18:27;;;;;;;17.67;3.13;;;;;;;6.63;100.00;95440.22;5045663;28;20049;-63
2024/03/30 05:20:59;;;;;;;29.10;4.50;;;;;;;6.63;100.00;95436.72;5046365;28;20047;-61
2024/03/30 05:23:25;;;;;;;29.25;4.70;;;;;;;6.64;100.00;95436.47;5040619;28;20112;-61
2024/03/30 05:25:52;;;;;;;25.30;3.25;;;;;;;6.66;100.00;95435.41;5038669;28;21782;-61
2024/03/30 05:28:19;;;;;;;17.58;3.83;;;;;;;6.73;100.00;95442.09;5039756;28;20080;-63
2024/03/30 05:30:50;;;;;;;20.25;3.83;;;;;;;6.80;100.00;95430.22;5060268;28;20491;-63
2024/03/30 05:33:16;;;;;;;26.63;3.97;;;;;;;6.80;100.00;95435.59;5056210;28;20041;-64
2024/03/30 05:35:41;;;;;;;21.67;3.17;;;;;;;6.89;100.00;95442.00;5056870;28;20453;-63
2024/03/30 05:38:07;;;;;;;18.77;3.95;;;;;;;6.95;100.00;95440.91;5060268;28;20041;-62
2024/03/30 05:40:35;;;;;;;24.13;3.58;;;;;;;7.08;100.00;95442.19;5061560;28;20047;-63
2024/03/30 05:43:02;;;;;;;19.88;3.63;;;;;;;7.20;100.00;95443.75;5054450;28;20044;-63
2024/03/30 05:45:28;;;;;;;22.90;2.80;;;;;;;7.40;100.00;95440.13;5058416;28;20098;-63
2024/03/30 05:47:54;;;;;;;27.48;4.38;;;;;;;7.72;100.00;95440.72;5063279;28;20033;-63
2024/03/30 05:50:23;;;;;;;21.02;3.17;;;;;;;7.98;100.00;95444.00;5060886;28;20040;-63
2024/03/30 05:52:49;;;;;;;17.00;2.85;;;;;;;8.26;100.00;95448.91;5065627;28;20515;-61
2024/03/30 05:55:15;;;;;;;20.23;3.10;;;;;;;8.45;100.00;95440.88;5056804;28;20119;-62
2024/03/30 05:57:41;;;;;;;21.40;3.45;;;;;;;8.79;100.00;95437.31;5060010;28;20048;-62
2024/03/30 06:00:10;;;;;;;18.30;3.20;;;;;;;8.99;100.00;95440.81;5063322;28;20044;-64
2024/03/30 06:02:42;;;;;;;;;;;;;;;9.13;100.00;95438.22;5059457;28;20078;-64
2024/03/30 06:05:08;;;;;;;17.48;3.33;;;;;;;9.30;100.00;95423.41;5063594;28;19924;-65
2024/03/30 06:07:34;;;;;;;18.27;2.63;;;;;;;9.51;100.00;95429.31;5063997;28;20081;-63
2024/03/30 06:10:00;;;;;;;23.05;3.13;;;;;;;9.52;100.00;95422.03;5056050;28;20520;-65
2024/03/30 06:12:26;;;;;;;20.70;3.33;;;;;;;9.62;100.00;95416.47;5047895;28;20048;-64
2024/03/30 06:14:52;;;;;;;23.65;3.28;;;;;;;9.70;100.00;95421.19;5055468;28;20045;-64
2024/03/30 06:17:17;;;;;;;20.08;3.00;;;;;;;9.78;100.00;95427.03;5056857;28;20610;-62
2024/03/30 06:19:43;;;;;;;15.90;3.55;;;;;;;9.89;100.00;95431.19;5057338;28;20063;-62
2024/03/30 06:22:09;;;;;;;17.60;3.22;;;;;;;9.95;100.00;95419.19;5055948;28;20615;-64
2024/03/30 06:24:38;;;;;;;18.15;3.67;;;;;;;10.04;100.00;95419.31;5057262;28;20041;-63
2024/03/30 06:27:08;;;;;;;18.55;3.22;;;;;;;10.15;100.00;95422.66;5055165;28;20409;-64
2024/03/30 06:29:35;;;;;;;21.02;4.57;;;;;;;10.26;100.00;95404.31;5055751;28;20082;-63
2024/03/30 06:32:01;;;;;;;23.45;3.00;;;;;;;10.43;100.00;95405.66;5061557;28;20037;-63
2024/03/30 06:34:27;;;;;;;11.85;2.47;;;;;;;10.43;100.00;95389.41;5063356;28;20071;-63
2024/03/30 06:36:52;;;;;;;19.85;3.13;;;;;;;10.40;100.00;95375.38;5059067;28;20403;-63
2024/03/30 06:39:18;;;;;;;23.98;3.85;;;;;;;10.29;100.00;95379.41;5056752;28;20056;-62
2024/03/30 06:44:28;;;;;;;17.95;3.33;;;;;;;10.12;100.00;95371.84;5065438;28;20047;-62
2024/03/30 06:46:54;;;;;;;21.15;4.22;;;;;;;10.06;100.00;95375.75;5063308;28;20045;-64
2024/03/30 06:49:20;;;;;;;20.88;4.25;;;;;;;10.04;100.00;95370.66;5060510;28;20416;-62
2024/03/30 06:51:47;;;;;;;27.13;4.05;;;;;;;10.06;100.00;95373.06;5050000;28;20040;-64
2024/03/30 06:54:13;;;;;;;20.67;2.83;;;;;;;10.14;100.00;95375.84;5053115;28;20079;-62
2024/03/30 06:56:39;;;;;;;21.00;3.53;;;;;;;10.27;100.00;95373.47;5053405;28;20052;-62
2024/03/30 06:59:05;;;;;;;22.50;4.20;;;;;;;10.26;100.00;95375.38;5058164;28;20065;-63
2024/03/30 07:01:30;;;;;;;16.73;3.30;;;;;;;10.24;100.00;95383.00;5045329;28;20051;-62
2024/03/30 07:03:56;;;;;;;26.92;4.65;;;;;;;10.22;100.00;95385.19;5054833;28;20234;-62
2024/03/30 07:06:22;;;;;;;27.08;5.22;;;;;;;10.28;100.00;95394.81;5058546;28;20051;-64
2024/03/30 07:08:48;;;;;;;21.52;3.97;;;;;;;10.35;100.00;95385.50;5059472;28;20044;-63
2024/03/30 07:11:14;;;;;;;20.08;4.30;;;;;;;10.45;100.00;95390.75;5059153;28;20072;-62
2024/03/30 07:13:41;;;;;;;17.10;4.93;;;;;;;10.50;100.00;95396.06;5054472;28;20033;-64
2024/03/30 07:16:07;;;;;;;19.38;4.75;;;;;;;10.57;100.00;95397.56;5065942;28;20419;-61
2024/03/30 07:18:32;;;;;;;17.48;4.55;;;;;;;10.58;100.00;95394.53;5052226;28;20040;-63
2024/03/30 07:20:58;;;;;;;18.08;3.20;;;;;;;10.63;100.00;95393.66;5055412;28;20051;-64
2024/03/30 07:23:23;;;;;;;23.08;4.55;;;;;;;10.72;100.00;95407.31;5066859;28;20040;-63
2024/03/30 07:25:49;;;;;;;25.33;5.57;;;;;;;10.63;100.00;95401.78;5056370;28;20094;-63
2024/03/30 07:28:14;;;;;;;19.55;5.50;;;;;;;10.70;100.00;95402.19;5061164;28;20054;-62
2024/03/30 07:30:41;;;;;;;27.63;4.55;;;;;;;10.65;100.00;95410.41;5051829;28;20040;-64
2024/03/30 07:33:07;;;;;;;21.67;4.65;;;;;;;10.47;100.00;95407.47;5057842;28;20041;-64
2024/03/30 07:35:33;;;;;;;23.90;4.93;;;;;;;10.38;100.00;95415.47;5040159;28;20072;-62
2024/03/30 07:38:03;;;;;;;17.88;3.35;;;;;;;10.24;100.00;95404.63;5052926;28;20102;-62
2024/03/30 07:40:29;;;;;;;18.60;4.28;;;;;;;10.38;100.00;95411.94;5042914;28;20048;-61
2024/03/30 07:42:54;;;;;;;22.75;4.50;;;;;;;10.08;100.00;95414.09;5060517;28;20110;-65
2024/03/30 07:45:20;;;;;;;19.40;4.55;;;;;;;10.13;100.00;95406.72;5041431;28;20073;-61
2024/03/30 07:47:46;;;;;;;16.60;3.03;;;;;;;10.17;100.00;95411.53;5058575;28;20127;-63
2024/03/30 07:50:12;;;;;;;17.40;3.42;;;;;;;10.30;100.00;95407.22;5045184;28;20075;-62
2024/03/30 07:52:38;;;;;;;20.17;4.70;;;;;;;10.41;100.00;95401.34;5059278;28;20043;-63
2024/03/30 07:55:06;;;;;;;27.98;4.53;;;;;;;10.52;100.00;95406.59;5048586;28;20170;-62
2024/03/30 07:57:32;;;;;;;23.75;4.78;;;;;;;10.48;100.00;95406.41;5058966;28;20036;-63
2024/03/30 07:59:58;;;;;;;15.23;3.75;;;;;;;10.35;100.00;95399.81;5062826;28;20089;-63
2024/03/30 08:02:24;;;;;;;25.55;3.97;;;;;;;10.32;100.00;95405.81;5053308;28;20040;-62
2024/03/30 08:04:50;;;;;;;19.77;3.90;;;;;;;10.30;100.00;95409.94;5054985;28;20060;-61
2024/03/30 08:07:15;;;;;;;23.73;5.07;;;;;;;10.34;100.00;95406.34;5061135;28;20580;-63
2024/03/30 08:09:41;;;;;;;24.50;5.60;;;;;;;10.33;100.00;95410.16;5057238;28;20047;-62
2024/03/30 08:12:06;;;;;;;29.40;5.28;;;;;;;10.34;100.00;95409.06;5044868;28;20095;-63
2024/03/30 08:14:32;;;;;;;27.73;5.03;;;;;;;10.36;100.00;95411.47;5050268;28;20041;-62
2024/03/30 08:16:58;;;;;;;20.67;4.55;;;;;;;10.44;100.00;95418.91;5059606;28;20052;-63
2024/03/30 08:19:23;;;;;;;21.83;4.63;;;;;;;10.35;100.00;95417.94;5059131;28;20543;-61
2024/03/30 08:21:49;;;;;;;27.23;4.45;;;;;;;10.23;100.00;95424.66;5061920;28;20769;-54
2024/03/30 08:24:14;;;;;;;31.00;5.18;;;;;;;10.24;100.00;95433.56;5051499;28;20044;-55
2024/03/30 08:26:40;;;;;;;20.80;4.05;;;;;;;10.35;100.00;95437.69;5052348;28;20049;-55
2024/03/30 08:29:07;;;;;;;22.00;5.05;;;;;;;10.38;100.00;95430.88;5056036;28;20048;-54
2024/03/30 08:31:32;;;;;;;24.27;3.85;;;;;;;10.50;100.00;95422.31;5066464;28;20040;-55
2024/03/30 08:33:58;;;;;;;22.30;4.90;;;;;;;10.60;100.00;95419.41;5060741;28;20319;-55
2024/03/30 08:36:24;;;;;;;17.63;3.67;;;;;;;10.65;100.00;95411.19;5068013;28;20425;-56
2024/03/30 08:38:49;;;;;;;20.73;4.28;;;;;;;10.65;100.00;95405.00;5058535;28;20579;-57
2024/03/30 08:41:15;;;;;;;25.33;5.00;;;;;;;10.64;100.00;95396.06;5063570;28;20066;-55
2024/03/30 08:43:40;;;;;;;16.48;4.65;;;;;;;10.62;100.00;95403.66;5062899;28;20047;-56
2024/03/30 08:46:06;;;;;;;28.63;5.25;;;;;;;10.62;100.00;95402.88;5066312;28;20048;-56
2024/03/30 08:48:34;;;;;;;21.75;4.18;;;;;;;10.72;100.00;95410.78;5059745;28;20707;-62
2024/03/30 08:51:00;;;;;;;25.35;3.72;;;;;;;10.76;100.00;95411.78;5055558;28;20048;-64
2024/03/30 08:53:26;;;;;;;22.05;4.25;;;;;;;10.95;100.00;95407.38;5059670;28;20040;-64
2024/03/30 08:55:59;;;;;;;17.83;3.67;;;;;;;11.15;100.00;95398.81;5049657;28;20106;-61
2024/03/30 08:58:25;;;;;;;24.92;4.65;;;;;;;11.25;100.00;95386.16;5062551;28;20578;-62
2024/03/30 09:00:51;;;;;;;20.80;3.85;;;;;;;11.28;100.00;95385.53;5049929;28;20480;-63
2024/03/30 09:03:17;;;;;;;20.40;3.25;;;;;;;11.22;100.00;95370.50;5052957;28;20353;-63
2024/03/30 09:05:44;;;;;;;17.45;3.85;;;;;;;11.14;100.00;95378.25;5053449;28;20093;-63
2024/03/30 09:08:10;;;;;;;20.70;3.72;;;;;;;11.18;100.00;95389.28;5050536;28;20058;-64
2024/03/30 09:10:35;;;;;;;16.13;3.47;;;;;;;11.27;100.00;95384.72;5049241;28;20527;-64
2024/03/30 09:13:02;;;;;;;18.92;4.28;;;;;;;11.40;99.65;95385.81;5046009;28;20044;-63
2024/03/30 09:15:28;;;;;;;14.57;4.35;;;;;;;11.45;96.60;95390.28;5054566;28;20099;-63
2024/03/30 09:17:53;;;;;;;19.73;4.28;;;;;;;11.56;94.52;95382.72;5050731;28;20044;-62
2024/03/30 09:20:19;;;;;;;16.63;3.03;;;;;;;11.67;91.06;95388.72;5059107;28;20283;-64
2024/03/30 09:22:44;;;;;;;24.00;3.83;;;;;;;11.84;87.04;95388.81;5073272;28;20055;-64
2024/03/30 09:25:14;;;;;;;24.35;5.88;;;;;;;11.96;84.38;95380.13;5058410;28;20047;-63
2024/03/30 09:27:43;;;;;;;17.48;4.55;;;;;;;11.94;84.44;95393.19;5059291;28;20040;-63
2024/03/30 09:30:10;;;;;;;24.30;3.55;;;;;;;11.86;87.83;95398.56;5056258;28;20044;-64
2024/03/30 09:32:39;;;;;;;20.80;3.55;;;;;;;11.68;93.04;95391.13;5057056;28;20045;-62
2024/03/30 09:35:07;;;;;;;26.20;3.85;;;;;;;11.66;93.64;95395.25;5059753;28;20067;-63
2024/03/30 09:37:33;;;;;;;22.98;5.57;;;;;;;11.54;96.83;95395.81;5054846;28;20086;-62
2024/03/30 09:39:58;;;;;;;22.75;3.55;;;;;;;11.41;100.00;95400.97;5048698;28;20045;-63
2024/03/30 09:42:32;;;;;;;15.63;3.33;;;;;;;11.31;100.00;95393.03;5054102;28;20063;-64
2024/03/30 09:44:59;;;;;;;14.40;2.10;;;;;;;11.27;100.00;95398.28;5058295;28;20072;-62
2024/03/30 09:47:26;;;;;;;18.52;3.00;;;;;;;11.23;100.00;95402.69;5054993;28;20045;-63
2024/03/30 09:49:52;;;;;;;15.98;3.20;;;;;;;11.18;100.00;95406.31;5061562;28;20048;-61
2024/03/30 09:52:24;;;;;;;22.13;3.85;;;;;;;11.20;100.00;95411.44;5046103;28;20098;-61
2024/03/30 09:54:51;;;;;;;17.92;3.97;;;;;;;11.22;100.00;95411.94;5056117;28;20055;-63
2024/03/30 09:57:17;;;;;;;16.48;3.05;;;;;;;11.18;100.00;95422.56;5063124;28;20947;-64
2024/03/30 09:59:47;;;;;;;15.15;2.67;;;;;;;11.16;100.00;95413.97;5060015;28;20529;-62
2024/03/30 10:02:13;;;;;;;21.27;2.80;;;;;;;11.21;100.00;95415.75;5043295;28;20101;-67
2024/03/30 10:04:38;;;;;;;15.25;3.83;;;;;;;11.21;100.00;95417.66;5058308;28;20041;-67
2024/03/30 10:07:33;;;;;;;17.13;3.35;;;;;;;11.22;100.00;95398.41;5057417;28;20044;-67
2024/03/30 10:10:07;;;;;;;22.17;4.70;;;;;;;11.23;100.00;95402.69;5052551;28;20036;-67
2024/03/30 10:12:40;;;;;;;24.25;4.97;;;;;;;11.20;100.00;95408.72;5055902;28;20044;-66
2024/03/30 10:15:07;;;;;;;23.40;4.35;;;;;;;11.19;100.00;95412.53;5049975;28;20045;-67
2024/03/30 10:17:33;;;;;;;18.23;5.25;;;;;;;11.28;100.00;95405.28;5041182;28;21941;-66
2024/03/30 10:20:02;;;;;;;20.77;3.83;;;;;;;11.35;100.00;95402.16;5059473;28;20040;-66
2024/03/30 10:22:28;;;;;;;28.52;5.80;;;;;;;11.60;100.00;95396.50;5054271;28;20036;-66
2024/03/30 10:24:55;;;;;;;26.00;5.47;;;;;;;11.68;100.00;95393.81;5051907;28;20147;-65
2024/03/30 10:27:20;;;;;;;20.88;4.88;;;;;;;11.70;100.00;95397.03;5039376;28;20036;-67
2024/03/30 10:29:46;;;;;;;24.02;5.00;;;;;;;11.76;100.00;95399.63;5029457;28;20229;-67
2024/03/30 10:32:12;;;;;;;18.98;4.47;;;;;;;11.81;100.00;95399.50;5026848;28;20044;-65
2024/03/30 10:34:37;;;;;;;20.23;6.63;;;;;;;11.91;100.00;95399.22;5023980;28;20119;-65
2024/03/30 10:37:06;;;;;;;33.65;5.97;;;;;;;12.02;100.00;95391.63;5024712;28;20131;-67
2024/03/30 10:39:32;;;;;;;25.73;4.85;;;;;;;12.05;100.00;95401.91;5023648;28;20043;-68
2024/03/30 10:41:58;;;;;;;25.88;5.55;;;;;;;12.20;100.00;95402.66;5017575;28;20064;-66
2024/03/30 10:44:28;;;;;;;29.02;5.40;;;;;;;12.17;100.00;95405.97;5014884;28;20059;-66
2024/03/30 10:46:55;;;;;;;29.70;6.07;;;;;;;12.05;100.00;95399.19;5014906;28;20054;-67
2024/03/30 10:49:23;;;;;;;30.15;5.78;;;;;;;12.06;100.00;95398.06;5015604;28;20051;-67
2024/03/30 10:51:50;;;;;;;27.73;5.40;;;;;;;12.15;100.00;95390.00;5013800;28;20135;-66
2024/03/30 10:54:19;;;;;;;29.10;5.82;;;;;;;12.23;100.00;95394.66;5013448;28;20569;-66
2024/03/30 10:56:51;;;;;;;33.83;6.18;;;;;;;12.32;100.00;95397.41;5012684;28;20091;-64
2024/03/30 10:59:18;;;;;;;27.13;5.40;;;;;;;12.44;100.00;95401.47;5014859;28;20055;-66
2024/03/30 11:01:51;;;;;;;24.92;5.45;;;;;;;12.39;100.00;95396.19;5009837;28;20071;-66
2024/03/30 11:04:18;;;;;;;25.23;5.30;;;;;;;12.35;100.00;95385.16;5012777;28;20047;-65
2024/03/30 11:06:47;;;;;;;23.30;4.68;;;;;;;12.47;100.00;95393.50;5021021;28;20044;-66
2024/03/30 11:09:16;;;;;;;26.88;4.82;;;;;;;12.68;95.97;95394.88;5028076;28;20044;-65
2024/03/30 11:11:46;;;;;;;29.30;5.97;;;;;;;12.67;94.96;95395.94;5029606;28;20044;-71
2024/03/30 11:14:12;;;;;;;24.90;5.05;;;;;;;12.67;94.81;95396.75;5030853;28;20061;-67
2024/03/30 11:16:44;;;;;;;31.02;5.55;;;;;;;12.77;92.52;95400.31;5030874;28;20044;-64
2024/03/30 11:19:22;;;;;;;21.33;3.88;;;;;;;12.73;92.80;95394.72;5026944;28;20047;-65
2024/03/30 11:21:54;;;;;;;20.25;3.63;;;;;;;12.71;92.32;95394.22;5028765;28;20032;-64
2024/03/30 11:24:21;;;;;;;29.20;5.47;;;;;;;12.86;91.07;95392.97;5030787;28;20082;-65